sensor_id;sensor_type;location;lat;lon;timestamp;pressure;altitude;pressure_sealevel;temperature;humidity
3668;BME280;24099;47.102;15.440;2023-07-20T09:21:08;96715.97;;;26.50;94.95
3668;BME280;24099;47.102;15.440;2023-07-20T09:23:37;96716.34;;;26.43;100.00
3668;BME280;24099;47.102;15.440;2023-07-20T09:26:10;96708.84;;;26.72;94.59
3668;BME280;24099;47.102;15.440;2023-07-20T09:28:42;96719.94;;;26.71;94.79
3668;BME280;24099;47.102;15.440;2023-07-20T09:31:16;96712.44;;;27.14;94.82
3668;BME280;24099;47.102;15.440;2023-07-20T09:33:45;96711.06;;;26.84;93.63
3668;BME280;24099;47.102;15.440;2023-07-20T09:36:14;96715.53;;;27.21;90.58
3668;BME280;24099;47.102;15.440;2023-07-20T09:38:42;96709.03;;;27.22;90.30
3668;BME280;24099;47.102;15.440;2023-07-20T09:41:14;96709.72;;;27.00;94.07
3668;BME280;24099;47.102;15.440;2023-07-20T09:43:42;96717.13;;;27.08;87.91
3668;BME280;24099;47.102;15.440;2023-07-20T09:46:09;96704.63;;;27.26;87.92
3668;BME280;24099;47.102;15.440;2023-07-20T09:48:37;96707.84;;;27.56;90.70
3668;BME280;24099;47.102;15.440;2023-07-20T09:51:05;96707.94;;;27.51;92.28
3668;BME280;24099;47.102;15.440;2023-07-20T09:53:35;96713.53;;;27.40;83.12
3668;BME280;24099;47.102;15.440;2023-07-20T09:56:05;96709.53;;;27.24;79.59
3668;BME280;24099;47.102;15.440;2023-07-20T09:58:34;96713.78;;;27.58;81.58
3668;BME280;24099;47.102;15.440;2023-07-20T10:01:04;96714.56;;;27.31;82.94
3668;BME280;24099;47.102;15.440;2023-07-20T10:03:38;96722.47;;;26.81;85.27
3668;BME280;24099;47.102;15.440;2023-07-20T10:06:07;96713.34;;;27.23;84.22
3668;BME280;24099;47.102;15.440;2023-07-20T10:08:39;96720.00;;;26.52;81.38
3668;BME280;24099;47.102;15.440;2023-07-20T10:11:09;96714.13;;;26.96;84.94
3668;BME280;24099;47.102;15.440;2023-07-20T10:13:38;96706.63;;;27.21;88.00
3668;BME280;24099;47.102;15.440;2023-07-20T10:16:10;96709.44;;;27.43;87.88
3668;BME280;24099;47.102;15.440;2023-07-20T10:18:45;96714.13;;;27.78;89.95
3668;BME280;24099;47.102;15.440;2023-07-20T10:21:17;96699.44;;;27.30;95.29
3668;BME280;24099;47.102;15.440;2023-07-20T10:23:50;96711.06;;;27.17;92.99
3668;BME280;24099;47.102;15.440;2023-07-20T10:26:18;96711.53;;;27.05;100.00
3668;BME280;24099;47.102;15.440;2023-07-20T10:28:45;96715.66;;;26.84;100.00
3668;BME280;24099;47.102;15.440;2023-07-20T10:31:14;96714.19;;;26.91;100.00
3668;BME280;24099;47.102;15.440;2023-07-20T10:33:43;96712.25;;;26.27;100.00
3668;BME280;24099;47.102;15.440;2023-07-20T10:36:12;96711.75;;;26.25;100.00
3668;BME280;24099;47.102;15.440;2023-07-20T10:38:40;96708.53;;;26.04;100.00
3668;BME280;24099;47.102;15.440;2023-07-20T10:41:20;96719.03;;;26.24;100.00
3668;BME280;24099;47.102;15.440;2023-07-20T10:43:51;96733.78;;;25.94;100.00
3668;BME280;24099;47.102;15.440;2023-07-20T10:46:34;96747.81;;;25.25;100.00
3668;BME280;24099;47.102;15.440;2023-07-20T10:49:03;96759.34;;;25.30;100.00
3668;BME280;24099;47.102;15.440;2023-07-20T10:51:38;96750.91;;;26.22;100.00
3668;BME280;24099;47.102;15.440;2023-07-20T10:54:09;96723.88;;;26.08;100.00
3668;BME280;24099;47.102;15.440;2023-07-20T10:56:38;96707.69;;;26.60;100.00
3668;BME280;24099;47.102;15.440;2023-07-20T10:59:18;96710.09;;;26.61;100.00
3668;BME280;24099;47.102;15.440;2023-07-20T11:01:48;96697.16;;;26.77;100.00
3668;BME280;24099;47.102;15.440;2023-07-20T11:04:16;96691.13;;;27.40;100.00
3668;BME280;24099;47.102;15.440;2023-07-20T11:06:45;96683.22;;;27.16;100.00
3668;BME280;24099;47.102;15.440;2023-07-20T11:09:14;96675.31;;;27.61;100.00
3668;BME280;24099;47.102;15.440;2023-07-20T11:11:44;96688.94;;;26.68;100.00
3668;BME280;24099;47.102;15.440;2023-07-20T11:14:22;96695.13;;;26.69;100.00
3668;BME280;24099;47.102;15.440;2023-07-20T11:16:51;96699.16;;;26.85;100.00
3668;BME280;24099;47.102;15.440;2023-07-20T11:19:20;96701.00;;;26.57;100.00
3668;BME280;24099;47.102;15.440;2023-07-20T11:21:51;96703.25;;;26.83;100.00
3668;BME280;24099;47.102;15.440;2023-07-20T11:24:19;96701.56;;;26.73;100.00
3668;BME280;24099;47.102;15.440;2023-07-20T11:26:49;96700.03;;;26.81;100.00
3668;BME280;24099;47.102;15.440;2023-07-20T11:29:18;96701.06;;;26.85;100.00
3668;BME280;24099;47.102;15.440;2023-07-20T11:31:47;96693.31;;;27.24;100.00
3668;BME280;24099;47.102;15.440;2023-07-20T11:34:15;96695.94;;;27.16;98.62
3668;BME280;24099;47.102;15.440;2023-07-20T11:36:44;96697.50;;;27.03;99.04
3668;BME280;24099;47.102;15.440;2023-07-20T11:39:13;96707.44;;;27.21;100.00
3668;BME280;24099;47.102;15.440;2023-07-20T11:41:46;96717.44;;;27.21;98.58
3668;BME280;24099;47.102;15.440;2023-07-20T11:44:16;96718.34;;;26.70;96.57
3668;BME280;24099;47.102;15.440;2023-07-20T11:46:44;96716.78;;;26.50;98.02
3668;BME280;24099;47.102;15.440;2023-07-20T11:49:11;96723.88;;;26.08;100.00
3668;BME280;24099;47.102;15.440;2023-07-20T11:51:40;96718.94;;;26.67;100.00
3668;BME280;24099;47.102;15.440;2023-07-20T11:54:09;96725.06;;;26.72;100.00
3668;BME280;24099;47.102;15.440;2023-07-20T11:56:37;96733.88;;;26.59;100.00
3668;BME280;24099;47.102;15.440;2023-07-20T11:59:08;96737.63;;;26.26;100.00
3668;BME280;24099;47.102;15.440;2023-07-20T12:01:37;96739.97;;;26.51;100.00
3668;BME280;24099;47.102;15.440;2023-07-20T12:04:05;96739.81;;;26.61;100.00
3668;BME280;24099;47.102;15.440;2023-07-20T12:06:33;96733.09;;;26.91;100.00
3668;BME280;24099;47.102;15.440;2023-07-20T12:09:00;96733.19;;;26.86;100.00
3668;BME280;24099;47.102;15.440;2023-07-20T12:11:33;96732.97;;;26.50;100.00
3668;BME280;24099;47.102;15.440;2023-07-20T12:14:00;96728.50;;;26.22;100.00
3668;BME280;24099;47.102;15.440;2023-07-20T12:16:29;96722.19;;;26.50;100.00
3668;BME280;24099;47.102;15.440;2023-07-20T12:19:02;96724.38;;;25.92;100.00
3668;BME280;24099;47.102;15.440;2023-07-20T12:21:30;96724.72;;;25.61;100.00
3668;BME280;24099;47.102;15.440;2023-07-20T12:23:58;96720.06;;;25.72;100.00
3668;BME280;24099;47.102;15.440;2023-07-20T12:26:28;96733.84;;;25.89;100.00
3668;BME280;24099;47.102;15.440;2023-07-20T12:28:56;96740.28;;;24.93;100.00
3668;BME280;24099;47.102;15.440;2023-07-20T12:31:24;96719.41;;;25.09;100.00
3668;BME280;24099;47.102;15.440;2023-07-20T12:33:56;96723.25;;;24.73;100.00
3668;BME280;24099;47.102;15.440;2023-07-20T12:36:25;96717.81;;;25.31;100.00
3668;BME280;24099;47.102;15.440;2023-07-20T12:38:53;96724.34;;;25.49;100.00
3668;BME280;24099;47.102;15.440;2023-07-20T12:41:20;96724.34;;;25.01;100.00
3668;BME280;24099;47.102;15.440;2023-07-20T12:43:48;96741.38;;;24.97;100.00
3668;BME280;24099;47.102;15.440;2023-07-20T12:46:16;96760.03;;;24.49;100.00
3668;BME280;24099;47.102;15.440;2023-07-20T12:48:43;96774.28;;;24.55;100.00
3668;BME280;24099;47.102;15.440;2023-07-20T12:51:11;96789.34;;;24.56;100.00
3668;BME280;24099;47.102;15.440;2023-07-20T12:53:40;96778.03;;;24.04;100.00
3668;BME280;24099;47.102;15.440;2023-07-20T12:56:07;96793.19;;;23.90;100.00
3668;BME280;24099;47.102;15.440;2023-07-20T12:58:35;96818.56;;;23.38;100.00
3668;BME280;24099;47.102;15.440;2023-07-20T13:01:03;96817.50;;;23.45;100.00
3668;BME280;24099;47.102;15.440;2023-07-20T13:03:30;96832.28;;;23.42;100.00
3668;BME280;24099;47.102;15.440;2023-07-20T13:05:59;96850.56;;;22.99;100.00
3668;BME280;24099;47.102;15.440;2023-07-20T13:08:26;96891.44;;;22.14;100.00
3668;BME280;24099;47.102;15.440;2023-07-20T13:10:55;96898.31;;;22.72;100.00
3668;BME280;24099;47.102;15.440;2023-07-20T13:13:26;96896.22;;;22.89;100.00
3668;BME280;24099;47.102;15.440;2023-07-20T13:15:54;96918.94;;;21.94;100.00
3668;BME280;24099;47.102;15.440;2023-07-20T13:18:22;96941.63;;;22.28;100.00
3668;BME280;24099;47.102;15.440;2023-07-20T13:20:50;96914.69;;;22.71;100.00
3668;BME280;24099;47.102;15.440;2023-07-20T13:23:17;96921.56;;;22.36;100.00
3668;BME280;24099;47.102;15.440;2023-07-20T13:25:45;96932.09;;;22.68;100.00
3668;BME280;24099;47.102;15.440;2023-07-20T13:28:14;96937.75;;;22.66;100.00
3668;BME280;24099;47.102;15.440;2023-07-20T13:30:41;96932.94;;;22.79;100.00
3668;BME280;24099;47.102;15.440;2023-07-20T13:33:11;96932.97;;;22.84;100.00
3668;BME280;24099;47.102;15.440;2023-07-20T13:35:38;96930.84;;;22.86;100.00
3668;BME280;24099;47.102;15.440;2023-07-20T13:38:06;96908.59;;;23.11;100.00
3668;BME280;24099;47.102;15.440;2023-07-20T13:40:33;96909.28;;;22.55;100.00
3668;BME280;24099;47.102;15.440;2023-07-20T13:43:01;96916.06;;;22.88;100.00
3668;BME280;24099;47.102;15.440;2023-07-20T13:45:30;96908.84;;;22.89;100.00
3668;BME280;24099;47.102;15.440;2023-07-20T13:47:58;96889.53;;;23.17;100.00
3668;BME280;24099;47.102;15.440;2023-07-20T13:50:25;96874.47;;;23.11;100.00
3668;BME280;24099;47.102;15.440;2023-07-20T13:52:54;96883.75;;;22.43;100.00
3668;BME280;24099;47.102;15.440;2023-07-20T13:55:22;96868.03;;;23.07;100.00
3668;BME280;24099;47.102;15.440;2023-07-20T13:57:49;96885.75;;;23.08;100.00
3668;BME280;24099;47.102;15.440;2023-07-20T14:00:18;96864.28;;;22.88;100.00
3668;BME280;24099;47.102;15.440;2023-07-20T14:02:46;96840.88;;;23.44;100.00
3668;BME280;24099;47.102;15.440;2023-07-20T14:05:14;96806.47;;;23.51;100.00
3668;BME280;24099;47.102;15.440;2023-07-20T14:07:42;96807.25;;;23.67;100.00
3668;BME280;24099;47.102;15.440;2023-07-20T14:10:10;96801.25;;;23.90;100.00
3668;BME280;24099;47.102;15.440;2023-07-20T14:12:38;96797.47;;;23.91;100.00
3668;BME280;24099;47.102;15.440;2023-07-20T14:15:06;96809.25;;;24.00;100.00
3668;BME280;24099;47.102;15.440;2023-07-20T14:17:34;96798.13;;;23.68;100.00
3668;BME280;24099;47.102;15.440;2023-07-20T14:20:03;96789.00;;;24.18;100.00
3668;BME280;24099;47.102;15.440;2023-07-20T14:22:32;96774.25;;;24.11;100.00
3668;BME280;24099;47.102;15.440;2023-07-20T14:25:00;96795.59;;;24.41;100.00
3668;BME280;24099;47.102;15.440;2023-07-20T14:27:30;96789.81;;;24.24;100.00
3668;BME280;24099;47.102;15.440;2023-07-20T14:29:58;96788.56;;;24.50;100.00
3668;BME280;24099;47.102;15.440;2023-07-20T14:32:25;96771.53;;;24.60;100.00
3668;BME280;24099;47.102;15.440;2023-07-20T14:34:53;96745.53;;;24.45;100.00
3668;BME280;24099;47.102;15.440;2023-07-20T14:37:22;96746.59;;;24.05;100.00
3668;BME280;24099;47.102;15.440;2023-07-20T14:39:49;96740.09;;;24.11;100.00
3668;BME280;24099;47.102;15.440;2023-07-20T14:42:17;96743.78;;;24.20;100.00
3668;BME280;24099;47.102;15.440;2023-07-20T14:44:45;96733.13;;;24.10;100.00
3668;BME280;24099;47.102;15.440;2023-07-20T14:47:12;96725.78;;;24.26;100.00
3668;BME280;24099;47.102;15.440;2023-07-20T14:49:40;96717.47;;;24.56;100.00
3668;BME280;24099;47.102;15.440;2023-07-20T14:52:07;96730.41;;;24.83;100.00
3668;BME280;24099;47.102;15.440;2023-07-20T14:54:36;96735.00;;;24.54;100.00
3668;BME280;24099;47.102;15.440;2023-07-20T14:57:04;96730.19;;;24.07;100.00
3668;BME280;24099;47.102;15.440;2023-07-20T14:59:33;96718.84;;;24.54;100.00
3668;BME280;24099;47.102;15.440;2023-07-20T15:02:01;96719.69;;;24.78;100.00
3668;BME280;24099;47.102;15.440;2023-07-20T15:04:29;96731.31;;;24.73;100.00
3668;BME280;24099;47.102;15.440;2023-07-20T15:06:56;96723.66;;;24.57;100.00
3668;BME280;24099;47.102;15.440;2023-07-20T15:09:24;96724.75;;;24.56;100.00
3668;BME280;24099;47.102;15.440;2023-07-20T15:11:53;96717.91;;;24.34;100.00
3668;BME280;24099;47.102;15.440;2023-07-20T15:14:20;96717.16;;;24.19;100.00
3668;BME280;24099;47.102;15.440;2023-07-20T15:16:48;96723.47;;;24.43;100.00
3668;BME280;24099;47.102;15.440;2023-07-20T15:19:15;96747.00;;;24.22;100.00
3668;BME280;24099;47.102;15.440;2023-07-20T15:21:43;96753.28;;;24.08;100.00
3668;BME280;24099;47.102;15.440;2023-07-20T15:24:11;96739.31;;;24.05;100.00
3668;BME280;24099;47.102;15.440;2023-07-20T15:26:38;96773.72;;;24.14;100.00
3668;BME280;24099;47.102;15.440;2023-07-20T15:29:08;96799.78;;;24.13;100.00
3668;BME280;24099;47.102;15.440;2023-07-20T15:31:36;96765.50;;;23.90;100.00
3668;BME280;24099;47.102;15.440;2023-07-20T15:34:04;96798.41;;;23.61;100.00
3668;BME280;24099;47.102;15.440;2023-07-20T15:36:32;96819.06;;;23.66;100.00
3668;BME280;24099;47.102;15.440;2023-07-20T15:38:59;96850.25;;;23.67;100.00
3668;BME280;24099;47.102;15.440;2023-07-20T15:41:27;96858.31;;;23.62;100.00
3668;BME280;24099;47.102;15.440;2023-07-20T15:43:55;96858.31;;;23.62;100.00
3668;BME280;24099;47.102;15.440;2023-07-20T15:46:46;96859.66;;;23.69;100.00
3668;BME280;24099;47.102;15.440;2023-07-20T15:49:14;96853.34;;;23.99;100.00
3668;BME280;24099;47.102;15.440;2023-07-20T15:51:42;96824.47;;;24.20;100.00
3668;BME280;24099;47.102;15.440;2023-07-20T15:54:12;96812.53;;;23.97;100.00
3668;BME280;24099;47.102;15.440;2023-07-20T15:56:42;96818.09;;;24.06;100.00
3668;BME280;24099;47.102;15.440;2023-07-20T15:59:11;96819.00;;;23.91;100.00
3668;BME280;24099;47.102;15.440;2023-07-20T16:01:40;96846.69;;;23.87;100.00
3668;BME280;24099;47.102;15.440;2023-07-20T16:04:11;96861.53;;;23.64;100.00
3668;BME280;24099;47.102;15.440;2023-07-20T16:06:40;96875.53;;;23.30;100.00
3668;BME280;24099;47.102;15.440;2023-07-20T16:09:07;96888.19;;;23.15;100.00
3668;BME280;24099;47.102;15.440;2023-07-20T16:11:36;96901.34;;;23.11;100.00
3668;BME280;24099;47.102;15.440;2023-07-20T16:14:05;96876.09;;;22.97;100.00
3668;BME280;24099;47.102;15.440;2023-07-20T16:16:34;96866.16;;;23.08;100.00
3668;BME280;24099;47.102;15.440;2023-07-20T16:19:02;96855.69;;;23.01;100.00
3668;BME280;24099;47.102;15.440;2023-07-20T16:21:31;96851.41;;;22.90;100.00
3668;BME280;24099;47.102;15.440;2023-07-20T16:23:59;96855.66;;;22.71;100.00
3668;BME280;24099;47.102;15.440;2023-07-20T16:26:26;96887.25;;;22.58;100.00
3668;BME280;24099;47.102;15.440;2023-07-20T16:28:54;96881.63;;;22.50;100.00
3668;BME280;24099;47.102;15.440;2023-07-20T16:31:23;96887.53;;;22.47;100.00
3668;BME280;24099;47.102;15.440;2023-07-20T16:33:51;96891.88;;;22.73;100.00
3668;BME280;24099;47.102;15.440;2023-07-20T16:36:18;96888.94;;;22.75;100.00
3668;BME280;24099;47.102;15.440;2023-07-20T16:38:47;96887.56;;;22.67;100.00
3668;BME280;24099;47.102;15.440;2023-07-20T16:41:15;96890.03;;;22.84;100.00
3668;BME280;24099;47.102;15.440;2023-07-20T16:43:43;96894.84;;;22.77;100.00
3668;BME280;24099;47.102;15.440;2023-07-20T16:46:10;96899.41;;;22.76;100.00
3668;BME280;24099;47.102;15.440;2023-07-20T16:48:39;96904.72;;;22.66;100.00
3668;BME280;24099;47.102;15.440;2023-07-20T16:51:06;96912.53;;;22.67;100.00
3668;BME280;24099;47.102;15.440;2023-07-20T16:53:34;96904.22;;;22.69;100.00
3668;BME280;24099;47.102;15.440;2023-07-20T16:56:03;96906.34;;;22.67;100.00
3668;BME280;24099;47.102;15.440;2023-07-20T16:58:31;96909.28;;;22.55;100.00
3668;BME280;24099;47.102;15.440;2023-07-20T17:01:01;96897.72;;;22.50;100.00
3668;BME280;24099;47.102;15.440;2023-07-20T17:03:29;96921.31;;;22.48;100.00
3668;BME280;24099;47.102;15.440;2023-07-20T17:05:56;96904.69;;;22.51;100.00
3668;BME280;24099;47.102;15.440;2023-07-20T17:08:24;96902.03;;;22.56;100.00
3668;BME280;24099;47.102;15.440;2023-07-20T17:10:51;96901.22;;;22.60;100.00
3668;BME280;24099;47.102;15.440;2023-07-20T17:13:21;96892.09;;;22.61;100.00
3668;BME280;24099;47.102;15.440;2023-07-20T17:15:49;96894.25;;;22.59;100.00
3668;BME280;24099;47.102;15.440;2023-07-20T17:18:17;96912.59;;;22.78;100.00
3668;BME280;24099;47.102;15.440;2023-07-20T17:20:45;96900.25;;;22.97;100.00
3668;BME280;24099;47.102;15.440;2023-07-20T17:23:14;96889.78;;;22.95;100.00
3668;BME280;24099;47.102;15.440;2023-07-20T17:25:45;96893.28;;;23.06;100.00
3668;BME280;24099;47.102;15.440;2023-07-20T17:28:13;96887.34;;;22.99;100.00
3668;BME280;24099;47.102;15.440;2023-07-20T17:30:42;96887.09;;;23.06;100.00
3668;BME280;24099;47.102;15.440;2023-07-20T17:33:10;96895.84;;;22.60;100.00
3668;BME280;24099;47.102;15.440;2023-07-20T17:35:37;96905.59;;;22.82;100.00
3668;BME280;24099;47.102;15.440;2023-07-20T17:38:05;96893.81;;;22.88;100.00
3668;BME280;24099;47.102;15.440;2023-07-20T17:40:33;96887.88;;;22.86;100.00
3668;BME280;24099;47.102;15.440;2023-07-20T17:43:00;96851.94;;;22.97;100.00
3668;BME280;24099;47.102;15.440;2023-07-20T17:45:28;96831.53;;;22.86;100.00
3668;BME280;24099;47.102;15.440;2023-07-20T17:47:57;96834.75;;;22.88;100.00
3668;BME280;24099;47.102;15.440;2023-07-20T17:50:24;96838.19;;;22.68;100.00
3668;BME280;24099;47.102;15.440;2023-07-20T17:52:53;96844.38;;;22.68;100.00
3668;BME280;24099;47.102;15.440;2023-07-20T17:55:22;96829.63;;;22.81;100.00
3668;BME280;24099;47.102;15.440;2023-07-20T17:57:49;96843.84;;;22.77;100.00
3668;BME280;24099;47.102;15.440;2023-07-20T18:00:17;96838.75;;;22.75;100.00
3668;BME280;24099;47.102;15.440;2023-07-20T18:02:45;96836.28;;;22.58;100.00
3668;BME280;24099;47.102;15.440;2023-07-20T18:05:14;96844.34;;;22.53;100.00
3668;BME280;24099;47.102;15.440;2023-07-20T18:07:42;96841.94;;;22.67;100.00
3668;BME280;24099;47.102;15.440;2023-07-20T18:10:10;96849.09;;;22.16;100.00
3668;BME280;24099;47.102;15.440;2023-07-20T18:12:37;96870.59;;;22.31;100.00
3668;BME280;24099;47.102;15.440;2023-07-20T18:15:06;96876.47;;;22.28;100.00
3668;BME280;24099;47.102;15.440;2023-07-20T18:17:35;96863.34;;;22.42;100.00
3668;BME280;24099;47.102;15.440;2023-07-20T18:20:03;96850.16;;;22.15;100.00
3668;BME280;24099;47.102;15.440;2023-07-20T18:22:34;96860.34;;;22.13;100.00
3668;BME280;24099;47.102;15.440;2023-07-20T18:25:01;96846.56;;;21.99;100.00
3668;BME280;24099;47.102;15.440;2023-07-20T18:27:31;96828.63;;;21.99;100.00
3668;BME280;24099;47.102;15.440;2023-07-20T18:29:58;96828.66;;;22.05;100.00
3668;BME280;24099;47.102;15.440;2023-07-20T18:32:26;96844.09;;;21.77;100.00
3668;BME280;24099;47.102;15.440;2023-07-20T18:34:54;96884.09;;;21.47;100.00
3668;BME280;24099;47.102;15.440;2023-07-20T18:37:21;96883.72;;;21.80;100.00
3668;BME280;24099;47.102;15.440;2023-07-20T18:39:52;96878.31;;;21.65;100.00
3668;BME280;24099;47.102;15.440;2023-07-20T18:42:20;96890.44;;;21.36;100.00
3668;BME280;24099;47.102;15.440;2023-07-20T18:44:47;96898.06;;;21.54;100.00
3668;BME280;24099;47.102;15.440;2023-07-20T18:47:15;96904.28;;;21.64;100.00
3668;BME280;24099;47.102;15.440;2023-07-20T18:49:42;96908.84;;;21.64;100.00
3668;BME280;24099;47.102;15.440;2023-07-20T18:52:10;96910.81;;;21.42;100.00
3668;BME280;24099;47.102;15.440;2023-07-20T18:54:38;96925.06;;;21.15;100.00
3668;BME280;24099;47.102;15.440;2023-07-20T18:57:07;96943.50;;;21.12;100.00
3668;BME280;24099;47.102;15.440;2023-07-20T18:59:35;96946.19;;;21.44;100.00
3668;BME280;24099;47.102;15.440;2023-07-20T19:02:03;96946.13;;;21.39;100.00
3668;BME280;24099;47.102;15.440;2023-07-20T19:04:30;96953.41;;;21.11;100.00
3668;BME280;24099;47.102;15.440;2023-07-20T19:06:58;96964.47;;;20.93;100.00
3668;BME280;24099;47.102;15.440;2023-07-20T19:09:26;96980.66;;;20.59;100.00
3668;BME280;24099;47.102;15.440;2023-07-20T19:11:53;96992.88;;;20.50;100.00
3668;BME280;24099;47.102;15.440;2023-07-20T19:14:22;96984.50;;;20.90;100.00
3668;BME280;24099;47.102;15.440;2023-07-20T19:16:50;96971.88;;;21.13;100.00
3668;BME280;24099;47.102;15.440;2023-07-20T19:19:18;96968.06;;;20.82;100.00
3668;BME280;24099;47.102;15.440;2023-07-20T19:21:46;96994.56;;;20.56;100.00
3668;BME280;24099;47.102;15.440;2023-07-20T19:24:14;97010.91;;;20.38;100.00
3668;BME280;24099;47.102;15.440;2023-07-20T19:26:41;97020.69;;;20.33;100.00
3668;BME280;24099;47.102;15.440;2023-07-20T19:29:09;97022.50;;;20.27;100.00
3668;BME280;24099;47.102;15.440;2023-07-20T19:31:40;97036.63;;;20.06;100.00
3668;BME280;24099;47.102;15.440;2023-07-20T19:34:08;97034.63;;;20.35;100.00
3668;BME280;24099;47.102;15.440;2023-07-20T19:36:35;97025.72;;;20.29;100.00
3668;BME280;24099;47.102;15.440;2023-07-20T19:39:03;97028.13;;;20.09;100.00
3668;BME280;24099;47.102;15.440;2023-07-20T19:41:30;97027.91;;;19.93;100.00
3668;BME280;24099;47.102;15.440;2023-07-20T19:43:58;97042.97;;;20.21;100.00
3668;BME280;24099;47.102;15.440;2023-07-20T19:46:25;97041.84;;;20.34;100.00
3668;BME280;24099;47.102;15.440;2023-07-20T19:48:54;97046.50;;;20.05;100.00
3668;BME280;24099;47.102;15.440;2023-07-20T19:51:22;97055.75;;;19.98;100.00
3668;BME280;24099;47.102;15.440;2023-07-20T19:53:49;97055.44;;;19.77;100.00
3668;BME280;24099;47.102;15.440;2023-07-20T19:56:17;97056.97;;;19.56;100.00
3668;BME280;24099;47.102;15.440;2023-07-20T19:58:44;97055.59;;;19.54;100.00
3668;BME280;24099;47.102;15.440;2023-07-20T20:01:13;97061.63;;;19.49;100.00
3668;BME280;24099;47.102;15.440;2023-07-20T20:03:41;97070.13;;;19.18;100.00
3668;BME280;24099;47.102;15.440;2023-07-20T20:06:09;97061.94;;;19.36;100.00
3668;BME280;24099;47.102;15.440;2023-07-20T20:08:37;97055.84;;;19.69;100.00
3668;BME280;24099;47.102;15.440;2023-07-20T20:11:05;97036.88;;;19.87;100.00
3668;BME280;24099;47.102;15.440;2023-07-20T20:13:32;97043.13;;;19.93;100.00
3668;BME280;24099;47.102;15.440;2023-07-20T20:16:00;97036.44;;;19.45;100.00
3668;BME280;24099;47.102;15.440;2023-07-20T20:18:27;97044.44;;;19.45;100.00
3668;BME280;24099;47.102;15.440;2023-07-20T20:20:56;97051.06;;;19.71;100.00
3668;BME280;24099;47.102;15.440;2023-07-20T20:23:26;97039.81;;;19.86;100.00
3668;BME280;24099;47.102;15.440;2023-07-20T20:25:53;97033.25;;;19.93;100.00
3668;BME280;24099;47.102;15.440;2023-07-20T20:28:21;97031.78;;;19.69;100.00
3668;BME280;24099;47.102;15.440;2023-07-20T20:30:51;97028.72;;;19.77;100.00
3668;BME280;24099;47.102;15.440;2023-07-20T20:33:19;97033.91;;;19.67;100.00
3668;BME280;24099;47.102;15.440;2023-07-20T20:35:47;97032.53;;;19.65;100.00
3668;BME280;24099;47.102;15.440;2023-07-20T20:38:17;97044.56;;;19.50;100.00
3668;BME280;24099;47.102;15.440;2023-07-20T20:40:47;97050.44;;;19.36;100.00
3668;BME280;24099;47.102;15.440;2023-07-20T20:43:15;97054.56;;;19.43;100.00
3668;BME280;24099;47.102;15.440;2023-07-20T20:45:42;97053.75;;;19.43;100.00
3668;BME280;24099;47.102;15.440;2023-07-20T20:48:10;97058.44;;;19.36;100.00
3668;BME280;24099;47.102;15.440;2023-07-20T20:50:39;97064.53;;;19.19;100.00
3668;BME280;24099;47.102;15.440;2023-07-20T20:53:10;97065.78;;;19.00;100.00
3668;BME280;24099;47.102;15.440;2023-07-20T20:55:37;97076.31;;;19.07;100.00
3668;BME280;24099;47.102;15.440;2023-07-20T20:58:06;97076.31;;;19.07;100.00
3668;BME280;24099;47.102;15.440;2023-07-20T21:00:35;97066.59;;;19.01;100.00
3668;BME280;24099;47.102;15.440;2023-07-20T21:03:02;97066.66;;;19.17;100.00
3668;BME280;24099;47.102;15.440;2023-07-20T21:05:33;97062.16;;;19.35;100.00
3668;BME280;24099;47.102;15.440;2023-07-20T21:08:02;97058.91;;;19.33;100.00
3668;BME280;24099;47.102;15.440;2023-07-20T21:10:30;97056.50;;;18.74;100.00
3668;BME280;24099;47.102;15.440;2023-07-20T21:12:58;97060.63;;;18.82;100.00
3668;BME280;24099;47.102;15.440;2023-07-20T21:15:27;97065.50;;;19.13;100.00
3668;BME280;24099;47.102;15.440;2023-07-20T21:17:55;97049.84;;;19.17;100.00
3668;BME280;24099;47.102;15.440;2023-07-20T21:20:22;97058.69;;;19.06;100.00
3668;BME280;24099;47.102;15.440;2023-07-20T21:22:50;97056.16;;;18.71;100.00
3668;BME280;24099;47.102;15.440;2023-07-20T21:25:18;97060.44;;;19.00;100.00
3668;BME280;24099;47.102;15.440;2023-07-20T21:27:46;97051.00;;;18.81;100.00
3668;BME280;24099;47.102;15.440;2023-07-20T21:30:14;97061.72;;;18.57;100.00
3668;BME280;24099;47.102;15.440;2023-07-20T21:32:42;97059.41;;;18.61;100.00
3668;BME280;24099;47.102;15.440;2023-07-20T21:35:10;97057.66;;;18.67;100.00
3668;BME280;24099;47.102;15.440;2023-07-20T21:37:38;97057.75;;;18.72;100.00
3668;BME280;24099;47.102;15.440;2023-07-20T21:40:06;97055.00;;;18.67;100.00
3668;BME280;24099;47.102;15.440;2023-07-20T21:42:34;97050.81;;;18.59;100.00
3668;BME280;24099;47.102;15.440;2023-07-20T21:45:04;97056.28;;;18.52;100.00
3668;BME280;24099;47.102;15.440;2023-07-20T21:47:31;97053.94;;;18.68;100.00
3668;BME280;24099;47.102;15.440;2023-07-20T21:50:00;97056.38;;;18.57;100.00
3668;BME280;24099;47.102;15.440;2023-07-20T21:52:28;97052.31;;;18.67;100.00
3668;BME280;24099;47.102;15.440;2023-07-20T21:54:55;97051.84;;;18.70;100.00
3668;BME280;24099;47.102;15.440;2023-07-20T21:57:23;97051.03;;;18.69;100.00
3668;BME280;24099;47.102;15.440;2023-07-20T21:59:51;97054.69;;;18.28;100.00
3668;BME280;24099;47.102;15.440;2023-07-20T22:02:18;97058.41;;;18.04;100.00
3668;BME280;24099;47.102;15.440;2023-07-20T22:04:46;97052.03;;;18.05;100.00
3668;BME280;24099;47.102;15.440;2023-07-20T22:07:15;97050.41;;;18.27;100.00
3668;BME280;24099;47.102;15.440;2023-07-20T22:09:45;97054.91;;;18.38;100.00
3668;BME280;24099;47.102;15.440;2023-07-20T22:12:13;97043.06;;;18.46;100.00
3668;BME280;24099;47.102;15.440;2023-07-20T22:14:41;97034.38;;;18.50;100.00
3668;BME280;24099;47.102;15.440;2023-07-20T22:17:10;97032.53;;;18.39;100.00